Millville, Minnesota
Current Conditions -  °F | °C
As of 7:53 PM on Monday 20 Oct 2014 (Local Time) from K9MN Reporting Station
Clear Clear  
Wind Chill: 55°   Ceiling: Unl
Heat Index: 55°   Visibility: 10mi
Dew Point: 38°   Wind: 5mph
Humidity: 53%   Direction: 360°N
Pressure: 30.03"   Gusts: NA
Location:  44.24°N, 92.3°W
Report Text: K9MN 210053Z AUTO 36004KT 10SM CLR 13/04 A3003 RMK AO1 T01280035
Loading
Personal Weather Stations






























Interactive Weather Map
Tropical Storm Tracking
New forecast layout! Learn more

10-Day Weather Forecast

Advertisements
Track Severe Weather on mobile